• Join FlightAware (Why Join?)
  • Login
  • US Flag 
09:34AM EDT


 

Airport Tracker/Info


-or-


 

Live Flight TrackerFlight Track Log ✈ TAM3228 ✈ 30-Jun-2013 ✈ SBSP / CGH - SBCF / CNF

Flight Track Log - Related Links

Times and Time Zones

All times are in EDT time to prevent confusion due to time zone crossing. See the TAM3228 flight status page for this flight to view local times or setup timezone preferences in your user account.

Time Position Orientation Groundspeed Altitude Reporting Facility
EDT Latitude Longitude Course Direction KTS MPH feet Rate Location/Type
09:10PM -22.5996 -45.9470 33° Northeast  Level Estimated
09:11PM -22.5353 -45.9030 32° Northeast  Level Estimated
09:12PM -22.4710 -45.8592 32° Northeast  Level Estimated
09:13PM -22.4067 -45.8153 32° Northeast  Level Estimated
09:14PM -22.3423 -45.7715 32° Northeast  Level Estimated
09:15PM -22.2780 -45.7278 32° Northeast  Level Estimated
09:16PM -22.2136 -45.6841 32° Northeast  Level Estimated
09:17PM -22.1493 -45.6404 32° Northeast  Level Estimated
09:18PM -22.0849 -45.5967 32° Northeast  Level Estimated
09:19PM -22.0205 -45.5531 32° Northeast  Level Estimated
09:20PM -21.9561 -45.5096 32° Northeast  Level Estimated
09:21PM -21.8917 -45.4660 32° Northeast  Level Estimated
09:22PM -21.8273 -45.4226 32° Northeast  Level Estimated
09:23PM -21.7628 -45.3791 32° Northeast  Level Estimated
09:24PM -21.6984 -45.3357 32° Northeast  Level Estimated
09:25PM -21.6339 -45.2924 32° Northeast  Level Estimated
09:26PM -21.5694 -45.2491 32° Northeast  Level Estimated
09:27PM -21.5050 -45.2058 32° Northeast  Level Estimated
09:28PM -21.4405 -45.1625 32° Northeast  Level Estimated
09:29PM -21.3760 -45.1193 32° Northeast  Level Estimated
09:30PM -21.3114 -45.0761 32° Northeast  Level Estimated
09:31PM -21.2469 -45.0330 32° Northeast  Level Estimated
09:32PM -21.1824 -44.9899 32° Northeast  Level Estimated
09:33PM -21.1178 -44.9469 32° Northeast  Level Estimated
09:34PM -21.0533 -44.9038 32° Northeast  Level Estimated
09:35PM -20.9887 -44.8609 32° Northeast  Level Estimated
09:36PM -20.9241 -44.8179 32° Northeast  Level Estimated
09:37PM -20.8595 -44.7750 32° Northeast  Level Estimated
09:38PM -20.7949 -44.7321 32° Northeast  Level Estimated
09:39PM -20.7303 -44.6893 32° Northeast  Level Estimated
09:40PM -20.6657 -44.6465 32° Northeast  Level Estimated
09:41PM -20.6011 -44.6037 32° Northeast  Level Estimated
09:42PM -20.5364 -44.5610 32° Northeast  Level Estimated
09:43PM -20.4718 -44.5183 32° Northeast  Level Estimated
09:44PM -20.4071 -44.4757 32° Northeast  Level Estimated
09:45PM -20.3424 -44.4331 32° Northeast  Level Estimated
09:46PM -20.2777 -44.3905 32° Northeast  Level Estimated
09:47PM -20.2130 -44.3479 32° Northeast  Level Estimated
09:48PM -20.1483 -44.3054 32° Northeast  Level Estimated
09:49PM -20.0836 -44.2630 32° Northeast  Level Estimated
09:50PM -20.0189 -44.2205 32° Northeast  Level Estimated
09:51PM -19.9541 -44.1781 32° Northeast  Level Estimated
09:52PM -19.8894 -44.1357 32° Northeast  Level Estimated
09:53PM -19.8246 -44.0934 32° Northeast  Level Estimated
09:54PM -19.7598 -44.0511 32° Northeast  Level Estimated
09:55PM -19.6951 -44.0088 32° Northeast  Level Estimated
09:56PM -19.6338 -43.9689 32° Northeast  Level Estimated
09:57PM -19.6338 -43.9689 90° East  Level Estimated